Tara — XUAB3 — position and weather

sailwx.info

Track history (hours):
 
Tides and Currents Weather Stations Pressure Air Temp Water Temp Dewpoint Dewpoint Depression Visibility Wind Speed Wind Dir Waves Ship Positions

Tara

Last reported at 2014-Jul-22 04:09 UTC. Time now 2014-Jul-30 17:18 UTC.
Position N 36°25' E 023°31'.
Warning: this ship's position is 8 days out of date.

Length 82 m; draft 6.8 m.

Type: Ship. MMSI: 515410000.

Date/timePositionNaut miles runAvg speedWind from/ knotsBaromVisibWave heightAir tempDewpointWater temp
2014-Jul-22 04:09N 36°25' E 023°31'10 9.6
2014-Jul-22 03:07N 36°25' E 023°43'5 9.3
2014-Jul-22 02:33N 36°25' E 023°50'19 9.1
2014-Jul-22 00:30N 36°25' E 024°13'9 9.1
2014-Jul-21 23:29N 36°25' E 024°25'9 9.2
2014-Jul-21 22:32N 36°25' E 024°36'9 9.5
2014-Jul-21 21:33N 36°26' E 024°47'10 9.6
2014-Jul-21 20:32N 36°29' E 024°59'2 9.6
2014-Jul-21 20:17N 36°30' E 025°01'7 9.8
2014-Jul-21 19:33N 36°32' E 025°10'1010.4
2014-Jul-21 18:33N 36°36' E 025°22'1010.1
2014-Jul-21 17:32N 36°41' E 025°33'9 9.0
2014-Jul-21 16:33N 36°43' E 025°44'9 9.1
2014-Jul-21 15:33N 36°42' E 025°55'13 9.3
2014-Jul-21 14:06N 36°46' E 026°12'7 8.7
2014-Jul-21 13:16N 36°48' E 026°20'  
2014-Jul-12 20:04N 34°29' E 035°49'0 0.0
2014-Jul-12 16:12N 34°29' E 035°49'  
Track history (hours):
 
Tides and Currents Weather Stations Pressure Air Temp Water Temp Dewpoint Dewpoint Depression Visibility Wind Speed Wind Dir Waves Ship Positions

Tara

Last reported at 2014-Jul-22 04:09 UTC. Time now 2014-Jul-30 17:18 UTC.
Position N 36°25' E 023°31'.
Warning: this ship's position is 8 days out of date.

Length 82 m; draft 6.8 m.

Type: Ship. MMSI: 515410000.

Date/timePositionNaut miles runAvg speedWind from/ knotsBaromVisibWave heightAir tempDewpointWater temp
2014-Jul-22 04:09N 36°25' E 023°31'10 9.6
2014-Jul-22 03:07N 36°25' E 023°43'5 9.3
2014-Jul-22 02:33N 36°25' E 023°50'19 9.1
2014-Jul-22 00:30N 36°25' E 024°13'9 9.1
2014-Jul-21 23:29N 36°25' E 024°25'9 9.2
2014-Jul-21 22:32N 36°25' E 024°36'9 9.5
2014-Jul-21 21:33N 36°26' E 024°47'10 9.6
2014-Jul-21 20:32N 36°29' E 024°59'2 9.6
2014-Jul-21 20:17N 36°30' E 025°01'7 9.8
2014-Jul-21 19:33N 36°32' E 025°10'1010.4
2014-Jul-21 18:33N 36°36' E 025°22'1010.1
2014-Jul-21 17:32N 36°41' E 025°33'9 9.0
2014-Jul-21 16:33N 36°43' E 025°44'9 9.1
2014-Jul-21 15:33N 36°42' E 025°55'13 9.3
2014-Jul-21 14:06N 36°46' E 026°12'7 8.7
2014-Jul-21 13:16N 36°48' E 026°20'  
2014-Jul-12 20:04N 34°29' E 035°49'0 0.0
2014-Jul-12 16:12N 34°29' E 035°49'  

Dump ship's entire track history